sensor_id;sensor_type;location;lat;lon;timestamp;P1;durP1;ratioP1;P2;durP2;ratioP2
12884;SDS011;6510;51.362;7.370;2022-11-15T00:00:45;10.77;;;7.57;;
12884;SDS011;6510;51.362;7.370;2022-11-15T00:03:12;10.63;;;7.57;;
12884;SDS011;6510;51.362;7.370;2022-11-15T00:05:42;8.43;;;6.90;;
12884;SDS011;6510;51.362;7.370;2022-11-15T00:08:08;10.40;;;7.33;;
12884;SDS011;6510;51.362;7.370;2022-11-15T00:10:35;11.00;;;7.30;;
12884;SDS011;6510;51.362;7.370;2022-11-15T00:13:04;12.13;;;7.77;;
12884;SDS011;6510;51.362;7.370;2022-11-15T00:15:39;9.23;;;6.93;;
12884;SDS011;6510;51.362;7.370;2022-11-15T00:18:06;9.10;;;7.20;;
12884;SDS011;6510;51.362;7.370;2022-11-15T00:20:42;9.23;;;7.50;;
12884;SDS011;6510;51.362;7.370;2022-11-15T00:23:08;10.13;;;6.83;;
12884;SDS011;6510;51.362;7.370;2022-11-15T00:25:34;9.13;;;6.93;;
12884;SDS011;6510;51.362;7.370;2022-11-15T00:28:00;8.97;;;6.73;;
12884;SDS011;6510;51.362;7.370;2022-11-15T00:30:26;11.33;;;6.97;;
12884;SDS011;6510;51.362;7.370;2022-11-15T00:32:53;11.03;;;6.80;;
12884;SDS011;6510;51.362;7.370;2022-11-15T00:35:18;10.50;;;6.43;;
12884;SDS011;6510;51.362;7.370;2022-11-15T00:37:44;10.27;;;6.83;;
12884;SDS011;6510;51.362;7.370;2022-11-15T00:40:12;9.80;;;6.47;;
12884;SDS011;6510;51.362;7.370;2022-11-15T00:42:39;9.47;;;7.00;;
12884;SDS011;6510;51.362;7.370;2022-11-15T00:45:05;8.47;;;6.97;;
12884;SDS011;6510;51.362;7.370;2022-11-15T00:47:31;8.97;;;6.83;;
12884;SDS011;6510;51.362;7.370;2022-11-15T00:49:56;13.17;;;6.67;;
12884;SDS011;6510;51.362;7.370;2022-11-15T00:52:22;8.80;;;7.17;;
12884;SDS011;6510;51.362;7.370;2022-11-15T00:54:48;10.30;;;6.97;;
12884;SDS011;6510;51.362;7.370;2022-11-15T00:57:13;9.43;;;6.90;;
12884;SDS011;6510;51.362;7.370;2022-11-15T00:59:39;9.93;;;6.77;;
12884;SDS011;6510;51.362;7.370;2022-11-15T01:02:05;9.33;;;6.63;;
12884;SDS011;6510;51.362;7.370;2022-11-15T01:04:30;8.83;;;6.93;;
12884;SDS011;6510;51.362;7.370;2022-11-15T01:06:59;7.87;;;7.10;;
12884;SDS011;6510;51.362;7.370;2022-11-15T01:09:24;9.77;;;6.60;;
12884;SDS011;6510;51.362;7.370;2022-11-15T01:11:50;10.00;;;6.70;;
12884;SDS011;6510;51.362;7.370;2022-11-15T01:14:16;9.30;;;7.33;;
12884;SDS011;6510;51.362;7.370;2022-11-15T01:16:42;7.80;;;7.00;;
12884;SDS011;6510;51.362;7.370;2022-11-15T01:19:07;9.93;;;6.60;;
12884;SDS011;6510;51.362;7.370;2022-11-15T01:21:33;8.57;;;6.73;;
12884;SDS011;6510;51.362;7.370;2022-11-15T01:23:59;9.20;;;7.40;;
12884;SDS011;6510;51.362;7.370;2022-11-15T01:26:24;10.50;;;7.20;;
12884;SDS011;6510;51.362;7.370;2022-11-15T01:28:50;8.67;;;6.47;;
12884;SDS011;6510;51.362;7.370;2022-11-15T01:31:19;8.40;;;6.77;;
12884;SDS011;6510;51.362;7.370;2022-11-15T01:33:46;7.93;;;7.13;;
12884;SDS011;6510;51.362;7.370;2022-11-15T01:36:13;9.87;;;6.63;;
12884;SDS011;6510;51.362;7.370;2022-11-15T01:38:40;8.67;;;6.73;;
12884;SDS011;6510;51.362;7.370;2022-11-15T01:41:11;9.17;;;7.00;;
12884;SDS011;6510;51.362;7.370;2022-11-15T01:43:42;10.97;;;6.43;;
12884;SDS011;6510;51.362;7.370;2022-11-15T01:46:19;10.40;;;7.07;;
12884;SDS011;6510;51.362;7.370;2022-11-15T01:48:49;8.73;;;7.13;;
12884;SDS011;6510;51.362;7.370;2022-11-15T01:51:16;9.93;;;6.77;;
12884;SDS011;6510;51.362;7.370;2022-11-15T01:53:44;7.80;;;6.60;;
12884;SDS011;6510;51.362;7.370;2022-11-15T01:56:13;10.30;;;7.10;;
12884;SDS011;6510;51.362;7.370;2022-11-15T01:58:43;10.00;;;6.60;;
12884;SDS011;6510;51.362;7.370;2022-11-15T02:01:10;11.17;;;7.47;;
12884;SDS011;6510;51.362;7.370;2022-11-15T02:03:51;10.50;;;7.70;;
12884;SDS011;6510;51.362;7.370;2022-11-15T02:06:21;7.57;;;6.87;;
12884;SDS011;6510;51.362;7.370;2022-11-15T02:08:47;8.00;;;7.07;;
12884;SDS011;6510;51.362;7.370;2022-11-15T02:11:14;8.37;;;6.63;;
12884;SDS011;6510;51.362;7.370;2022-11-15T02:13:40;9.23;;;6.90;;
12884;SDS011;6510;51.362;7.370;2022-11-15T02:26:01;9.37;;;7.60;;
12884;SDS011;6510;51.362;7.370;2022-11-15T02:28:29;9.97;;;8.00;;
12884;SDS011;6510;51.362;7.370;2022-11-15T02:31:04;9.90;;;8.10;;
12884;SDS011;6510;51.362;7.370;2022-11-15T02:36:36;10.07;;;8.47;;
12884;SDS011;6510;51.362;7.370;2022-11-15T02:39:10;10.43;;;7.77;;
12884;SDS011;6510;51.362;7.370;2022-11-15T02:42:07;10.07;;;8.10;;
12884;SDS011;6510;51.362;7.370;2022-11-15T02:45:10;11.53;;;8.20;;
12884;SDS011;6510;51.362;7.370;2022-11-15T02:47:44;10.53;;;8.00;;
12884;SDS011;6510;51.362;7.370;2022-11-15T02:50:15;10.97;;;8.50;;
12884;SDS011;6510;51.362;7.370;2022-11-15T02:52:53;11.87;;;9.17;;
12884;SDS011;6510;51.362;7.370;2022-11-15T02:55:29;11.13;;;7.90;;
12884;SDS011;6510;51.362;7.370;2022-11-15T03:00:50;11.47;;;8.27;;
12884;SDS011;6510;51.362;7.370;2022-11-15T03:06:09;8.77;;;7.47;;
12884;SDS011;6510;51.362;7.370;2022-11-15T03:08:54;9.37;;;7.20;;
12884;SDS011;6510;51.362;7.370;2022-11-15T03:11:28;12.73;;;8.43;;
12884;SDS011;6510;51.362;7.370;2022-11-15T03:13:57;10.13;;;7.53;;
12884;SDS011;6510;51.362;7.370;2022-11-15T03:19:02;12.73;;;7.07;;
12884;SDS011;6510;51.362;7.370;2022-11-15T03:21:37;9.50;;;6.83;;
12884;SDS011;6510;51.362;7.370;2022-11-15T03:24:06;11.40;;;7.00;;
12884;SDS011;6510;51.362;7.370;2022-11-15T03:26:33;10.50;;;6.63;;
12884;SDS011;6510;51.362;7.370;2022-11-15T03:29:06;7.77;;;6.20;;
12884;SDS011;6510;51.362;7.370;2022-11-15T03:31:43;9.23;;;6.77;;
12884;SDS011;6510;51.362;7.370;2022-11-15T03:34:16;9.00;;;6.93;;
12884;SDS011;6510;51.362;7.370;2022-11-15T03:36:49;8.80;;;6.77;;
12884;SDS011;6510;51.362;7.370;2022-11-15T03:39:17;7.23;;;6.43;;
12884;SDS011;6510;51.362;7.370;2022-11-15T03:41:47;9.93;;;6.80;;
12884;SDS011;6510;51.362;7.370;2022-11-15T03:49:34;7.87;;;6.47;;
12884;SDS011;6510;51.362;7.370;2022-11-15T03:52:03;9.40;;;6.60;;
12884;SDS011;6510;51.362;7.370;2022-11-15T03:54:30;8.47;;;6.83;;
12884;SDS011;6510;51.362;7.370;2022-11-15T03:56:55;6.97;;;6.07;;
12884;SDS011;6510;51.362;7.370;2022-11-15T03:59:21;9.27;;;6.57;;
12884;SDS011;6510;51.362;7.370;2022-11-15T04:01:47;8.00;;;6.23;;
12884;SDS011;6510;51.362;7.370;2022-11-15T04:04:13;8.90;;;6.97;;
12884;SDS011;6510;51.362;7.370;2022-11-15T04:06:38;7.40;;;6.57;;
12884;SDS011;6510;51.362;7.370;2022-11-15T04:09:04;10.13;;;7.60;;
12884;SDS011;6510;51.362;7.370;2022-11-15T04:11:30;8.63;;;7.10;;
12884;SDS011;6510;51.362;7.370;2022-11-15T04:13:55;8.17;;;6.10;;
12884;SDS011;6510;51.362;7.370;2022-11-15T04:16:21;7.40;;;6.70;;
12884;SDS011;6510;51.362;7.370;2022-11-15T04:18:47;8.13;;;7.00;;
12884;SDS011;6510;51.362;7.370;2022-11-15T04:21:32;7.90;;;6.63;;
12884;SDS011;6510;51.362;7.370;2022-11-15T04:24:16;9.40;;;7.30;;
12884;SDS011;6510;51.362;7.370;2022-11-15T04:26:42;8.40;;;6.90;;
12884;SDS011;6510;51.362;7.370;2022-11-15T04:29:07;7.93;;;6.27;;
12884;SDS011;6510;51.362;7.370;2022-11-15T04:32:08;10.97;;;7.30;;
12884;SDS011;6510;51.362;7.370;2022-11-15T04:34:34;10.63;;;7.07;;
12884;SDS011;6510;51.362;7.370;2022-11-15T04:37:00;8.57;;;6.93;;
12884;SDS011;6510;51.362;7.370;2022-11-15T04:39:38;7.87;;;7.13;;
12884;SDS011;6510;51.362;7.370;2022-11-15T04:42:04;8.00;;;7.00;;
12884;SDS011;6510;51.362;7.370;2022-11-15T04:44:33;8.60;;;7.17;;
12884;SDS011;6510;51.362;7.370;2022-11-15T04:47:02;7.70;;;6.90;;
12884;SDS011;6510;51.362;7.370;2022-11-15T04:49:28;7.90;;;7.20;;
12884;SDS011;6510;51.362;7.370;2022-11-15T04:51:53;8.00;;;7.20;;
12884;SDS011;6510;51.362;7.370;2022-11-15T04:54:19;7.90;;;7.10;;
12884;SDS011;6510;51.362;7.370;2022-11-15T04:56:45;7.77;;;6.97;;
12884;SDS011;6510;51.362;7.370;2022-11-15T04:59:10;7.87;;;7.07;;
12884;SDS011;6510;51.362;7.370;2022-11-15T05:01:36;7.70;;;6.93;;
12884;SDS011;6510;51.362;7.370;2022-11-15T05:04:02;7.47;;;6.77;;
12884;SDS011;6510;51.362;7.370;2022-11-15T05:06:48;7.97;;;7.17;;
12884;SDS011;6510;51.362;7.370;2022-11-15T05:09:15;7.60;;;6.90;;
12884;SDS011;6510;51.362;7.370;2022-11-15T05:11:45;9.80;;;7.50;;
12884;SDS011;6510;51.362;7.370;2022-11-15T05:14:11;7.27;;;6.40;;
12884;SDS011;6510;51.362;7.370;2022-11-15T05:16:37;7.70;;;6.57;;
12884;SDS011;6510;51.362;7.370;2022-11-15T05:19:04;8.10;;;7.10;;
12884;SDS011;6510;51.362;7.370;2022-11-15T05:21:33;8.03;;;6.77;;
12884;SDS011;6510;51.362;7.370;2022-11-15T05:23:59;8.27;;;6.57;;
12884;SDS011;6510;51.362;7.370;2022-11-15T05:26:25;7.10;;;6.37;;
12884;SDS011;6510;51.362;7.370;2022-11-15T05:28:52;7.53;;;6.83;;
12884;SDS011;6510;51.362;7.370;2022-11-15T05:31:22;7.17;;;6.47;;
12884;SDS011;6510;51.362;7.370;2022-11-15T05:33:49;7.70;;;6.50;;
12884;SDS011;6510;51.362;7.370;2022-11-15T05:39:04;6.90;;;6.30;;
12884;SDS011;6510;51.362;7.370;2022-11-15T05:41:32;8.53;;;6.40;;
12884;SDS011;6510;51.362;7.370;2022-11-15T05:44:00;7.20;;;6.33;;
12884;SDS011;6510;51.362;7.370;2022-11-15T05:46:28;7.50;;;6.50;;
12884;SDS011;6510;51.362;7.370;2022-11-15T05:48:55;6.90;;;5.67;;
12884;SDS011;6510;51.362;7.370;2022-11-15T05:51:21;6.83;;;5.80;;
12884;SDS011;6510;51.362;7.370;2022-11-15T05:53:48;7.03;;;6.03;;
12884;SDS011;6510;51.362;7.370;2022-11-15T05:56:14;6.23;;;5.43;;
12884;SDS011;6510;51.362;7.370;2022-11-15T05:58:40;6.40;;;5.50;;
12884;SDS011;6510;51.362;7.370;2022-11-15T06:01:07;5.80;;;5.20;;
12884;SDS011;6510;51.362;7.370;2022-11-15T06:03:32;8.43;;;5.27;;
12884;SDS011;6510;51.362;7.370;2022-11-15T06:05:58;5.80;;;5.30;;
12884;SDS011;6510;51.362;7.370;2022-11-15T06:08:24;5.57;;;5.07;;
12884;SDS011;6510;51.362;7.370;2022-11-15T06:10:49;6.93;;;5.50;;
12884;SDS011;6510;51.362;7.370;2022-11-15T06:13:15;5.87;;;4.67;;
12884;SDS011;6510;51.362;7.370;2022-11-15T06:15:40;5.03;;;4.53;;
12884;SDS011;6510;51.362;7.370;2022-11-15T06:18:06;4.90;;;4.50;;
12884;SDS011;6510;51.362;7.370;2022-11-15T06:20:32;4.40;;;4.00;;
12884;SDS011;6510;51.362;7.370;2022-11-15T06:23:01;4.83;;;4.37;;
12884;SDS011;6510;51.362;7.370;2022-11-15T06:25:29;4.63;;;4.23;;
12884;SDS011;6510;51.362;7.370;2022-11-15T06:27:58;4.07;;;3.70;;
12884;SDS011;6510;51.362;7.370;2022-11-15T06:30:25;4.87;;;3.63;;
12884;SDS011;6510;51.362;7.370;2022-11-15T06:32:51;3.93;;;3.40;;
12884;SDS011;6510;51.362;7.370;2022-11-15T06:35:23;4.40;;;3.27;;
12884;SDS011;6510;51.362;7.370;2022-11-15T06:37:48;4.13;;;3.80;;
12884;SDS011;6510;51.362;7.370;2022-11-15T06:40:14;3.47;;;3.13;;
12884;SDS011;6510;51.362;7.370;2022-11-15T06:42:40;6.43;;;3.40;;
12884;SDS011;6510;51.362;7.370;2022-11-15T06:45:06;3.73;;;3.43;;
12884;SDS011;6510;51.362;7.370;2022-11-15T06:47:32;6.53;;;3.17;;
12884;SDS011;6510;51.362;7.370;2022-11-15T06:49:57;4.30;;;3.20;;
12884;SDS011;6510;51.362;7.370;2022-11-15T06:52:23;3.33;;;3.10;;
12884;SDS011;6510;51.362;7.370;2022-11-15T06:54:48;3.63;;;3.33;;
12884;SDS011;6510;51.362;7.370;2022-11-15T06:57:14;3.23;;;2.93;;
12884;SDS011;6510;51.362;7.370;2022-11-15T06:59:40;3.33;;;3.03;;
12884;SDS011;6510;51.362;7.370;2022-11-15T07:02:05;3.53;;;3.23;;
12884;SDS011;6510;51.362;7.370;2022-11-15T07:04:31;5.33;;;2.97;;
12884;SDS011;6510;51.362;7.370;2022-11-15T07:06:57;3.33;;;2.80;;
12884;SDS011;6510;51.362;7.370;2022-11-15T07:09:22;3.13;;;2.70;;
12884;SDS011;6510;51.362;7.370;2022-11-15T07:11:48;2.80;;;2.30;;
12884;SDS011;6510;51.362;7.370;2022-11-15T07:14:13;3.33;;;2.67;;
12884;SDS011;6510;51.362;7.370;2022-11-15T07:16:39;2.73;;;2.53;;
12884;SDS011;6510;51.362;7.370;2022-11-15T07:19:04;3.50;;;2.90;;
12884;SDS011;6510;51.362;7.370;2022-11-15T07:21:30;3.20;;;2.70;;
12884;SDS011;6510;51.362;7.370;2022-11-15T07:23:57;4.77;;;2.60;;
12884;SDS011;6510;51.362;7.370;2022-11-15T07:26:23;4.60;;;2.70;;
12884;SDS011;6510;51.362;7.370;2022-11-15T07:28:48;3.00;;;2.70;;
12884;SDS011;6510;51.362;7.370;2022-11-15T07:31:14;2.80;;;2.57;;
12884;SDS011;6510;51.362;7.370;2022-11-15T07:33:39;2.50;;;2.30;;
12884;SDS011;6510;51.362;7.370;2022-11-15T07:36:05;2.70;;;2.50;;
12884;SDS011;6510;51.362;7.370;2022-11-15T07:38:32;2.93;;;2.60;;
12884;SDS011;6510;51.362;7.370;2022-11-15T07:41:00;2.93;;;2.50;;
12884;SDS011;6510;51.362;7.370;2022-11-15T07:43:27;3.37;;;2.60;;
12884;SDS011;6510;51.362;7.370;2022-11-15T07:45:54;3.80;;;2.60;;
12884;SDS011;6510;51.362;7.370;2022-11-15T07:48:20;2.43;;;2.23;;
12884;SDS011;6510;51.362;7.370;2022-11-15T07:50:46;2.93;;;2.40;;
12884;SDS011;6510;51.362;7.370;2022-11-15T07:53:12;2.87;;;2.60;;
12884;SDS011;6510;51.362;7.370;2022-11-15T07:55:39;3.20;;;2.50;;
12884;SDS011;6510;51.362;7.370;2022-11-15T07:58:08;2.50;;;2.30;;
12884;SDS011;6510;51.362;7.370;2022-11-15T08:00:36;2.60;;;2.40;;
12884;SDS011;6510;51.362;7.370;2022-11-15T08:03:06;3.40;;;2.60;;
12884;SDS011;6510;51.362;7.370;2022-11-15T08:05:33;3.17;;;2.57;;
12884;SDS011;6510;51.362;7.370;2022-11-15T08:07:59;2.80;;;2.13;;
12884;SDS011;6510;51.362;7.370;2022-11-15T08:10:25;2.87;;;2.00;;
12884;SDS011;6510;51.362;7.370;2022-11-15T08:13:10;3.33;;;2.30;;
12884;SDS011;6510;51.362;7.370;2022-11-15T08:15:37;2.63;;;2.40;;
12884;SDS011;6510;51.362;7.370;2022-11-15T08:18:04;3.87;;;2.17;;
12884;SDS011;6510;51.362;7.370;2022-11-15T08:20:37;2.57;;;2.00;;
12884;SDS011;6510;51.362;7.370;2022-11-15T08:23:03;4.10;;;2.10;;
12884;SDS011;6510;51.362;7.370;2022-11-15T08:25:30;2.40;;;2.20;;
12884;SDS011;6510;51.362;7.370;2022-11-15T08:28:06;1.77;;;1.67;;
12884;SDS011;6510;51.362;7.370;2022-11-15T08:30:36;2.00;;;1.90;;
12884;SDS011;6510;51.362;7.370;2022-11-15T08:33:09;2.03;;;1.70;;
12884;SDS011;6510;51.362;7.370;2022-11-15T08:35:36;2.33;;;1.50;;
12884;SDS011;6510;51.362;7.370;2022-11-15T08:38:02;1.90;;;1.70;;
12884;SDS011;6510;51.362;7.370;2022-11-15T08:40:27;1.70;;;1.60;;
12884;SDS011;6510;51.362;7.370;2022-11-15T08:42:53;1.83;;;1.70;;
12884;SDS011;6510;51.362;7.370;2022-11-15T08:45:18;2.83;;;1.77;;
12884;SDS011;6510;51.362;7.370;2022-11-15T08:47:44;1.77;;;1.67;;
12884;SDS011;6510;51.362;7.370;2022-11-15T08:50:10;1.87;;;1.67;;
12884;SDS011;6510;51.362;7.370;2022-11-15T08:52:35;2.13;;;1.60;;
12884;SDS011;6510;51.362;7.370;2022-11-15T08:55:01;3.53;;;1.57;;
12884;SDS011;6510;51.362;7.370;2022-11-15T08:57:28;1.67;;;1.50;;
12884;SDS011;6510;51.362;7.370;2022-11-15T08:59:55;1.43;;;1.33;;
12884;SDS011;6510;51.362;7.370;2022-11-15T09:02:21;1.53;;;1.40;;
12884;SDS011;6510;51.362;7.370;2022-11-15T09:04:46;2.27;;;1.57;;
12884;SDS011;6510;51.362;7.370;2022-11-15T09:07:13;1.70;;;1.60;;
12884;SDS011;6510;51.362;7.370;2022-11-15T09:09:39;1.87;;;1.33;;
12884;SDS011;6510;51.362;7.370;2022-11-15T09:12:05;1.50;;;1.37;;
12884;SDS011;6510;51.362;7.370;2022-11-15T09:14:31;1.40;;;1.30;;
12884;SDS011;6510;51.362;7.370;2022-11-15T09:16:57;1.57;;;1.43;;
12884;SDS011;6510;51.362;7.370;2022-11-15T09:19:23;2.60;;;1.50;;
12884;SDS011;6510;51.362;7.370;2022-11-15T09:21:49;3.47;;;1.70;;
12884;SDS011;6510;51.362;7.370;2022-11-15T09:24:15;1.53;;;1.43;;
12884;SDS011;6510;51.362;7.370;2022-11-15T09:26:42;1.37;;;1.27;;
12884;SDS011;6510;51.362;7.370;2022-11-15T09:29:07;1.63;;;1.53;;
12884;SDS011;6510;51.362;7.370;2022-11-15T09:31:33;1.43;;;1.30;;
12884;SDS011;6510;51.362;7.370;2022-11-15T09:33:59;1.27;;;1.27;;
12884;SDS011;6510;51.362;7.370;2022-11-15T09:36:25;1.50;;;1.40;;
12884;SDS011;6510;51.362;7.370;2022-11-15T09:38:51;1.30;;;1.10;;
12884;SDS011;6510;51.362;7.370;2022-11-15T09:41:22;1.23;;;1.13;;
12884;SDS011;6510;51.362;7.370;2022-11-15T09:49:50;1.20;;;1.00;;
12884;SDS011;6510;51.362;7.370;2022-11-15T09:52:18;1.20;;;1.10;;
12884;SDS011;6510;51.362;7.370;2022-11-15T09:54:47;1.80;;;1.50;;
12884;SDS011;6510;51.362;7.370;2022-11-15T09:59:49;1.30;;;1.20;;
12884;SDS011;6510;51.362;7.370;2022-11-15T10:05:36;2.40;;;1.10;;
12884;SDS011;6510;51.362;7.370;2022-11-15T10:11:07;1.33;;;1.00;;
12884;SDS011;6510;51.362;7.370;2022-11-15T10:13:36;1.10;;;1.00;;
12884;SDS011;6510;51.362;7.370;2022-11-15T10:19:39;1.17;;;1.07;;
12884;SDS011;6510;51.362;7.370;2022-11-15T10:22:28;2.20;;;1.00;;
12884;SDS011;6510;51.362;7.370;2022-11-15T10:25:00;1.13;;;1.03;;
12884;SDS011;6510;51.362;7.370;2022-11-15T10:27:40;1.93;;;1.13;;
12884;SDS011;6510;51.362;7.370;2022-11-15T10:30:12;2.27;;;1.10;;
12884;SDS011;6510;51.362;7.370;2022-11-15T10:32:40;2.10;;;1.27;;
12884;SDS011;6510;51.362;7.370;2022-11-15T10:35:18;1.63;;;1.00;;
12884;SDS011;6510;51.362;7.370;2022-11-15T10:37:46;1.13;;;1.03;;
12884;SDS011;6510;51.362;7.370;2022-11-15T10:40:15;1.40;;;1.00;;
12884;SDS011;6510;51.362;7.370;2022-11-15T10:42:43;2.23;;;1.17;;
12884;SDS011;6510;51.362;7.370;2022-11-15T10:45:28;1.00;;;1.00;;
12884;SDS011;6510;51.362;7.370;2022-11-15T10:48:18;2.30;;;1.20;;
12884;SDS011;6510;51.362;7.370;2022-11-15T10:50:44;1.20;;;1.10;;
12884;SDS011;6510;51.362;7.370;2022-11-15T10:53:14;1.30;;;1.00;;
12884;SDS011;6510;51.362;7.370;2022-11-15T10:55:47;1.30;;;1.20;;
12884;SDS011;6510;51.362;7.370;2022-11-15T11:00:52;2.43;;;1.30;;
12884;SDS011;6510;51.362;7.370;2022-11-15T11:06:05;1.67;;;1.30;;
12884;SDS011;6510;51.362;7.370;2022-11-15T11:08:57;1.30;;;1.23;;
12884;SDS011;6510;51.362;7.370;2022-11-15T11:11:25;1.30;;;1.20;;
12884;SDS011;6510;51.362;7.370;2022-11-15T11:14:13;1.50;;;1.10;;
12884;SDS011;6510;51.362;7.370;2022-11-15T11:16:49;1.80;;;1.10;;
12884;SDS011;6510;51.362;7.370;2022-11-15T11:24:53;1.53;;;0.80;;
12884;SDS011;6510;51.362;7.370;2022-11-15T11:27:43;1.17;;;0.97;;
12884;SDS011;6510;51.362;7.370;2022-11-15T11:30:23;2.00;;;1.20;;
12884;SDS011;6510;51.362;7.370;2022-11-15T11:46:17;1.03;;;0.77;;
12884;SDS011;6510;51.362;7.370;2022-11-15T11:51:57;0.97;;;0.90;;
12884;SDS011;6510;51.362;7.370;2022-11-15T12:00:47;1.73;;;0.90;;
12884;SDS011;6510;51.362;7.370;2022-11-15T12:05:49;0.80;;;0.80;;
12884;SDS011;6510;51.362;7.370;2022-11-15T12:13:58;1.23;;;1.03;;
12884;SDS011;6510;51.362;7.370;2022-11-15T12:16:27;1.87;;;0.87;;
12884;SDS011;6510;51.362;7.370;2022-11-15T12:18:55;0.77;;;0.70;;
12884;SDS011;6510;51.362;7.370;2022-11-15T12:23:59;0.80;;;0.80;;
12884;SDS011;6510;51.362;7.370;2022-11-15T12:26:32;1.07;;;0.83;;
12884;SDS011;6510;51.362;7.370;2022-11-15T12:29:09;3.33;;;1.10;;
12884;SDS011;6510;51.362;7.370;2022-11-15T12:31:48;0.93;;;0.70;;
12884;SDS011;6510;51.362;7.370;2022-11-15T12:36:45;1.03;;;0.93;;
12884;SDS011;6510;51.362;7.370;2022-11-15T12:39:12;0.77;;;0.77;;
12884;SDS011;6510;51.362;7.370;2022-11-15T12:44:10;1.00;;;1.00;;
12884;SDS011;6510;51.362;7.370;2022-11-15T13:02:23;1.53;;;1.17;;
12884;SDS011;6510;51.362;7.370;2022-11-15T13:17:38;2.63;;;0.90;;
12884;SDS011;6510;51.362;7.370;2022-11-15T13:29:17;2.20;;;1.20;;
12884;SDS011;6510;51.362;7.370;2022-11-15T13:31:44;1.40;;;0.90;;
12884;SDS011;6510;51.362;7.370;2022-11-15T13:34:25;2.47;;;1.30;;
12884;SDS011;6510;51.362;7.370;2022-11-15T13:36:51;1.50;;;1.13;;
12884;SDS011;6510;51.362;7.370;2022-11-15T13:39:25;1.73;;;1.27;;
12884;SDS011;6510;51.362;7.370;2022-11-15T13:41:59;4.17;;;1.60;;
12884;SDS011;6510;51.362;7.370;2022-11-15T13:50:37;2.70;;;1.30;;
12884;SDS011;6510;51.362;7.370;2022-11-15T13:53:04;4.67;;;1.50;;
12884;SDS011;6510;51.362;7.370;2022-11-15T13:55:30;3.37;;;2.00;;
12884;SDS011;6510;51.362;7.370;2022-11-15T13:58:01;1.70;;;1.57;;
12884;SDS011;6510;51.362;7.370;2022-11-15T14:00:33;3.40;;;1.47;;
12884;SDS011;6510;51.362;7.370;2022-11-15T14:03:19;1.40;;;1.30;;
12884;SDS011;6510;51.362;7.370;2022-11-15T14:06:02;2.97;;;1.40;;
12884;SDS011;6510;51.362;7.370;2022-11-15T14:08:35;1.60;;;1.50;;
12884;SDS011;6510;51.362;7.370;2022-11-15T14:11:17;2.33;;;1.70;;
12884;SDS011;6510;51.362;7.370;2022-11-15T14:19:08;3.57;;;1.80;;
12884;SDS011;6510;51.362;7.370;2022-11-15T14:27:44;4.43;;;1.50;;
12884;SDS011;6510;51.362;7.370;2022-11-15T14:30:29;2.80;;;1.80;;
12884;SDS011;6510;51.362;7.370;2022-11-15T14:32:55;2.87;;;2.00;;
12884;SDS011;6510;51.362;7.370;2022-11-15T14:35:21;2.20;;;1.60;;
12884;SDS011;6510;51.362;7.370;2022-11-15T14:37:48;3.07;;;1.80;;
12884;SDS011;6510;51.362;7.370;2022-11-15T14:40:15;3.50;;;1.80;;
12884;SDS011;6510;51.362;7.370;2022-11-15T14:42:44;2.00;;;1.87;;
12884;SDS011;6510;51.362;7.370;2022-11-15T14:45:14;2.93;;;1.97;;
12884;SDS011;6510;51.362;7.370;2022-11-15T14:47:42;2.37;;;1.80;;
12884;SDS011;6510;51.362;7.370;2022-11-15T14:50:15;2.97;;;1.90;;
12884;SDS011;6510;51.362;7.370;2022-11-15T14:52:43;2.73;;;1.63;;
12884;SDS011;6510;51.362;7.370;2022-11-15T14:55:31;2.00;;;1.80;;
12884;SDS011;6510;51.362;7.370;2022-11-15T14:58:04;2.90;;;1.90;;
12884;SDS011;6510;51.362;7.370;2022-11-15T15:00:35;2.43;;;1.80;;
12884;SDS011;6510;51.362;7.370;2022-11-15T15:03:03;2.57;;;1.67;;
12884;SDS011;6510;51.362;7.370;2022-11-15T15:05:34;3.57;;;1.73;;
12884;SDS011;6510;51.362;7.370;2022-11-15T15:08:07;3.83;;;1.67;;
12884;SDS011;6510;51.362;7.370;2022-11-15T15:10:35;2.80;;;1.50;;
12884;SDS011;6510;51.362;7.370;2022-11-15T15:13:05;3.87;;;1.70;;
12884;SDS011;6510;51.362;7.370;2022-11-15T15:15:42;2.10;;;1.60;;
12884;SDS011;6510;51.362;7.370;2022-11-15T15:18:08;4.47;;;1.60;;
12884;SDS011;6510;51.362;7.370;2022-11-15T15:20:39;1.93;;;1.60;;
12884;SDS011;6510;51.362;7.370;2022-11-15T15:23:10;1.93;;;1.73;;
12884;SDS011;6510;51.362;7.370;2022-11-15T15:25:39;2.10;;;1.67;;
12884;SDS011;6510;51.362;7.370;2022-11-15T15:28:06;6.03;;;1.80;;
12884;SDS011;6510;51.362;7.370;2022-11-15T15:30:32;1.97;;;1.73;;
12884;SDS011;6510;51.362;7.370;2022-11-15T15:32:58;2.67;;;1.70;;
12884;SDS011;6510;51.362;7.370;2022-11-15T15:35:23;1.73;;;1.63;;
12884;SDS011;6510;51.362;7.370;2022-11-15T15:37:55;2.17;;;1.80;;
12884;SDS011;6510;51.362;7.370;2022-11-15T15:40:21;2.00;;;1.63;;
12884;SDS011;6510;51.362;7.370;2022-11-15T15:42:48;3.33;;;1.87;;
12884;SDS011;6510;51.362;7.370;2022-11-15T15:45:38;3.43;;;1.60;;
12884;SDS011;6510;51.362;7.370;2022-11-15T15:48:05;2.90;;;1.70;;
12884;SDS011;6510;51.362;7.370;2022-11-15T15:50:34;2.50;;;1.60;;
12884;SDS011;6510;51.362;7.370;2022-11-15T15:53:02;2.23;;;1.80;;
12884;SDS011;6510;51.362;7.370;2022-11-15T15:55:30;3.00;;;1.70;;
12884;SDS011;6510;51.362;7.370;2022-11-15T15:57:56;1.90;;;1.60;;
12884;SDS011;6510;51.362;7.370;2022-11-15T16:00:23;5.23;;;2.10;;
12884;SDS011;6510;51.362;7.370;2022-11-15T16:02:50;3.43;;;1.87;;
12884;SDS011;6510;51.362;7.370;2022-11-15T16:05:16;2.60;;;1.80;;
12884;SDS011;6510;51.362;7.370;2022-11-15T16:07:42;3.10;;;2.60;;
12884;SDS011;6510;51.362;7.370;2022-11-15T16:10:20;2.63;;;2.43;;
12884;SDS011;6510;51.362;7.370;2022-11-15T16:12:46;3.80;;;3.40;;
12884;SDS011;6510;51.362;7.370;2022-11-15T16:15:12;4.13;;;2.63;;
12884;SDS011;6510;51.362;7.370;2022-11-15T16:17:39;2.73;;;2.50;;
12884;SDS011;6510;51.362;7.370;2022-11-15T16:20:15;5.57;;;3.13;;
12884;SDS011;6510;51.362;7.370;2022-11-15T16:23:15;3.90;;;2.80;;
12884;SDS011;6510;51.362;7.370;2022-11-15T16:25:47;3.33;;;2.30;;
12884;SDS011;6510;51.362;7.370;2022-11-15T16:28:19;10.63;;;6.87;;
12884;SDS011;6510;51.362;7.370;2022-11-15T16:31:03;16.87;;;8.93;;
12884;SDS011;6510;51.362;7.370;2022-11-15T16:33:29;13.90;;;10.83;;
12884;SDS011;6510;51.362;7.370;2022-11-15T16:35:57;14.20;;;10.27;;
12884;SDS011;6510;51.362;7.370;2022-11-15T16:38:23;9.00;;;6.40;;
12884;SDS011;6510;51.362;7.370;2022-11-15T16:40:48;1.97;;;1.80;;
12884;SDS011;6510;51.362;7.370;2022-11-15T16:43:14;2.07;;;1.90;;
12884;SDS011;6510;51.362;7.370;2022-11-15T16:45:40;1.77;;;1.60;;
12884;SDS011;6510;51.362;7.370;2022-11-15T16:48:06;2.90;;;2.60;;
12884;SDS011;6510;51.362;7.370;2022-11-15T16:50:39;2.83;;;1.73;;
12884;SDS011;6510;51.362;7.370;2022-11-15T16:53:05;2.20;;;1.50;;
12884;SDS011;6510;51.362;7.370;2022-11-15T16:55:31;1.80;;;1.60;;
12884;SDS011;6510;51.362;7.370;2022-11-15T16:57:57;3.87;;;1.83;;
12884;SDS011;6510;51.362;7.370;2022-11-15T17:00:22;1.73;;;1.63;;
12884;SDS011;6510;51.362;7.370;2022-11-15T17:02:49;2.20;;;2.00;;
12884;SDS011;6510;51.362;7.370;2022-11-15T17:05:16;2.70;;;1.90;;
12884;SDS011;6510;51.362;7.370;2022-11-15T17:07:45;3.20;;;2.20;;
12884;SDS011;6510;51.362;7.370;2022-11-15T17:10:19;3.53;;;3.20;;
12884;SDS011;6510;51.362;7.370;2022-11-15T17:12:46;3.83;;;2.13;;
12884;SDS011;6510;51.362;7.370;2022-11-15T17:15:12;2.90;;;1.80;;
12884;SDS011;6510;51.362;7.370;2022-11-15T17:17:38;1.67;;;1.57;;
12884;SDS011;6510;51.362;7.370;2022-11-15T17:20:05;1.90;;;1.53;;
12884;SDS011;6510;51.362;7.370;2022-11-15T17:22:34;3.73;;;1.40;;
12884;SDS011;6510;51.362;7.370;2022-11-15T17:25:01;1.87;;;1.77;;
12884;SDS011;6510;51.362;7.370;2022-11-15T17:27:27;2.00;;;1.80;;
12884;SDS011;6510;51.362;7.370;2022-11-15T17:30:19;1.70;;;1.60;;
12884;SDS011;6510;51.362;7.370;2022-11-15T17:32:45;2.40;;;1.87;;
12884;SDS011;6510;51.362;7.370;2022-11-15T17:35:13;2.20;;;1.87;;
12884;SDS011;6510;51.362;7.370;2022-11-15T17:37:39;2.37;;;2.10;;
12884;SDS011;6510;51.362;7.370;2022-11-15T17:40:05;1.93;;;1.60;;
12884;SDS011;6510;51.362;7.370;2022-11-15T17:42:31;2.77;;;2.57;;
12884;SDS011;6510;51.362;7.370;2022-11-15T17:44:57;3.23;;;1.83;;